createdAt,value
2023-04-29T00:00:22.634Z,10.07
2023-04-29T00:05:24.523Z,10.07
2023-04-29T00:10:26.381Z,11.15
2023-04-29T00:15:28.164Z,11.32
2023-04-29T00:20:29.798Z,10.27
2023-04-29T00:25:31.390Z,9.25
2023-04-29T00:30:34.643Z,10.90
2023-04-29T00:35:36.399Z,10.27
2023-04-29T00:40:38.380Z,8.48
2023-04-29T00:45:40.397Z,10.38
2023-04-29T00:50:42.531Z,9.98
2023-04-29T00:55:46.441Z,10.07
2023-04-29T01:00:49.602Z,9.93
2023-04-29T01:06:19.137Z,10.98
2023-04-29T01:16:53.016Z,16.23
2023-04-29T01:21:55.128Z,16.07
2023-04-29T01:27:02.168Z,19.25
2023-04-29T01:32:34.688Z,18.83
2023-04-29T01:37:56.824Z,16.73
2023-04-29T01:43:03.430Z,17.70
2023-04-29T01:48:08.991Z,14.33
2023-04-29T01:53:10.878Z,14.55
2023-04-29T01:58:12.668Z,17.80
2023-04-29T02:03:31.857Z,18.27
2023-04-29T02:08:37.131Z,14.65
2023-04-29T02:13:39.103Z,15.30
2023-04-29T02:18:41.370Z,15.48
2023-04-29T02:23:43.275Z,17.10
2023-04-29T02:28:44.906Z,21.13
2023-04-29T02:33:46.587Z,21.55
2023-04-29T02:38:50.705Z,21.63
2023-04-29T02:43:52.318Z,22.13
2023-04-29T02:48:54.139Z,21.15
2023-04-29T02:53:56.372Z,22.20
2023-04-29T02:58:58.351Z,23.35
2023-04-29T03:04:00.265Z,25.85
2023-04-29T03:09:02.143Z,25.33
2023-04-29T03:14:04.122Z,24.65
2023-04-29T03:19:06.453Z,23.05
2023-04-29T03:24:08.862Z,21.23
2023-04-29T03:29:11.591Z,20.95
2023-04-29T03:34:14.676Z,23.70
2023-04-29T03:39:22.091Z,18.98
2023-04-29T03:44:23.948Z,18.05
2023-04-29T03:49:26.137Z,20.52
2023-04-29T03:54:28.156Z,18.67
2023-04-29T03:59:30.264Z,20.50
2023-04-29T04:04:32.178Z,20.15
2023-04-29T04:09:34.122Z,20.10
2023-04-29T04:14:36.103Z,19.38
2023-04-29T04:19:37.797Z,18.45
2023-04-29T04:24:39.471Z,17.10
2023-04-29T04:29:41.169Z,18.73
2023-04-29T04:34:49.939Z,17.48
2023-04-29T04:39:52.069Z,16.45
2023-04-29T04:44:54.178Z,16.25
2023-04-29T04:50:07.628Z,17.20
2023-04-29T04:55:09.863Z,17.23
2023-04-29T05:00:12.896Z,16.38
2023-04-29T05:05:14.923Z,18.23
2023-04-29T05:10:18.047Z,18.48
2023-04-29T05:15:27.610Z,19.90
2023-04-29T05:20:34.511Z,18.20
2023-04-29T05:25:36.932Z,16.63
2023-04-29T05:30:39.009Z,16.90
2023-04-29T05:35:41.868Z,16.13
2023-04-29T05:40:44.832Z,15.73
2023-04-29T05:46:06.038Z,18.88
2023-04-29T05:51:07.732Z,19.58
2023-04-29T05:56:09.824Z,19.75
2023-04-29T06:01:12.187Z,19.67
2023-04-29T06:06:14.006Z,19.55
2023-04-29T06:11:31.780Z,17.88
2023-04-29T06:16:36.500Z,18.17
2023-04-29T06:21:38.659Z,18.27
2023-04-29T06:26:41.364Z,15.57
2023-04-29T06:31:43.224Z,19.08
2023-04-29T06:36:45.082Z,16.33
2023-04-29T06:42:05.442Z,14.07
2023-04-29T06:47:41.989Z,13.85
2023-04-29T06:52:48.253Z,13.43
2023-04-29T06:57:49.994Z,13.48
2023-04-29T07:02:51.689Z,13.00
2023-04-29T07:07:53.607Z,15.63
2023-04-29T07:12:55.248Z,13.05
2023-04-29T07:17:57.127Z,11.60
2023-04-29T07:22:59.727Z,11.52
2023-04-29T07:28:01.503Z,11.77
2023-04-29T07:33:04.480Z,12.82
2023-04-29T07:38:06.605Z,11.10
2023-04-29T07:43:09.303Z,12.32
2023-04-29T07:48:11.141Z,9.77
2023-04-29T07:53:12.869Z,10.35
2023-04-29T07:58:14.685Z,10.65
2023-04-29T08:03:16.569Z,11.30
2023-04-29T08:08:18.974Z,9.55
2023-04-29T08:13:20.902Z,8.00
2023-04-29T08:18:22.751Z,11.43
2023-04-29T08:23:24.350Z,12.57
2023-04-29T08:28:25.972Z,12.43
2023-04-29T08:33:27.678Z,12.65
2023-04-29T08:38:32.346Z,11.48
2023-04-29T08:43:37.307Z,10.13
2023-04-29T08:48:44.990Z,9.85
2023-04-29T08:53:47.307Z,9.73
2023-04-29T08:58:58.249Z,9.27
2023-04-29T09:04:30.006Z,8.70
2023-04-29T09:09:33.373Z,8.73
2023-04-29T09:14:36.727Z,9.73
2023-04-29T09:19:38.372Z,10.40
2023-04-29T09:24:40.037Z,10.20
2023-04-29T09:30:00.998Z,9.77
2023-04-29T09:35:21.355Z,9.52
2023-04-29T09:40:43.419Z,8.45
2023-04-29T09:45:49.153Z,7.50
2023-04-29T09:51:04.441Z,9.05
2023-04-29T09:56:07.340Z,8.68
2023-04-29T10:01:09.972Z,10.98
2023-04-29T10:06:13.032Z,10.82
2023-04-29T10:11:16.826Z,10.20
2023-04-29T10:16:33.033Z,12.25
2023-04-29T10:21:34.988Z,12.32
2023-04-29T10:26:39.336Z,11.77
2023-04-29T10:31:43.641Z,11.85
2023-04-29T10:36:46.802Z,15.13
2023-04-29T10:41:50.885Z,14.20
2023-04-29T10:47:21.513Z,13.05
2023-04-29T10:52:23.226Z,13.13
2023-04-29T10:57:25.239Z,13.75
2023-04-29T11:02:27.066Z,14.30
2023-04-29T11:07:30.075Z,13.65
2023-04-29T11:12:31.729Z,12.43
2023-04-29T11:17:38.136Z,12.25
2023-04-29T11:22:40.200Z,12.93
2023-04-29T11:27:43.159Z,11.10
2023-04-29T11:32:44.824Z,8.98
2023-04-29T11:37:47.250Z,8.27
2023-04-29T11:42:50.094Z,4.35
2023-04-29T11:47:53.983Z,6.55
2023-04-29T11:52:58.360Z,8.85
2023-04-29T11:58:00.328Z,9.07
2023-04-29T12:03:02.144Z,10.63
2023-04-29T12:08:03.947Z,10.98
2023-04-29T12:13:05.616Z,7.07
2023-04-29T12:18:08.460Z,9.90
2023-04-29T12:23:24.298Z,10.00
2023-04-29T12:28:27.197Z,10.63
2023-04-29T12:33:30.045Z,9.52
2023-04-29T12:38:31.817Z,9.10
2023-04-29T12:43:33.836Z,10.23
2023-04-29T12:48:46.473Z,11.15
2023-04-29T12:53:48.199Z,11.32
2023-04-29T12:58:49.812Z,11.50
2023-04-29T13:03:51.970Z,11.70
2023-04-29T13:08:54.583Z,10.30
2023-04-29T13:13:56.156Z,8.93
2023-04-29T13:19:05.275Z,7.75
2023-04-29T13:24:10.523Z,8.23
2023-04-29T13:29:12.151Z,10.85
2023-04-29T13:34:13.909Z,11.20
2023-04-29T13:39:15.657Z,11.32
2023-04-29T13:44:29.384Z,10.50
2023-04-29T13:50:05.739Z,10.73
2023-04-29T13:55:33.031Z,23.05
2023-04-29T14:05:23.145Z,4.95
2023-04-29T14:10:25.043Z,4.38
2023-04-29T14:15:26.803Z,7.00
2023-04-29T14:20:28.400Z,6.05
2023-04-29T14:25:31.579Z,5.60
2023-04-29T14:30:34.732Z,15.15
2023-04-29T14:35:36.319Z,41.72
2023-04-29T14:40:39.174Z,55.17
2023-04-29T14:45:41.665Z,18.08
2023-04-29T14:50:43.330Z,8.13
2023-04-29T14:55:45.016Z,5.72
2023-04-29T15:00:46.931Z,7.22
2023-04-29T15:05:50.626Z,7.47
2023-04-29T15:10:52.606Z,6.95
2023-04-29T15:15:54.337Z,7.18
2023-04-29T15:20:55.976Z,4.68
2023-04-29T15:25:57.936Z,5.10
2023-04-29T15:31:01.869Z,7.32
2023-04-29T15:36:03.784Z,8.93
2023-04-29T15:41:05.649Z,12.23
2023-04-29T15:46:08.594Z,11.23
2023-04-29T15:51:10.594Z,13.07
2023-04-29T15:56:13.333Z,13.07
2023-04-29T16:01:15.085Z,11.65
2023-04-29T16:06:16.815Z,26.80
2023-04-29T16:11:18.714Z,10.43
2023-04-29T16:16:20.354Z,10.70
2023-04-29T16:21:22.120Z,12.63
2023-04-29T16:26:25.013Z,12.40
2023-04-29T16:31:27.767Z,11.50
2023-04-29T16:36:30.081Z,10.25
2023-04-29T16:41:32.301Z,12.80
2023-04-29T16:46:34.274Z,12.10
2023-04-29T16:51:36.157Z,10.77
2023-04-29T16:56:37.920Z,10.30
2023-04-29T17:01:39.965Z,11.40
2023-04-29T17:06:42.356Z,11.15
2023-04-29T17:11:44.144Z,11.82
2023-04-29T17:16:45.822Z,11.25
2023-04-29T17:21:47.449Z,12.75
2023-04-29T17:26:49.036Z,10.65
2023-04-29T17:31:59.306Z,12.27
2023-04-29T17:37:01.317Z,15.88
2023-04-29T17:42:03.643Z,16.17
2023-04-29T17:47:06.135Z,13.63
2023-04-29T17:52:07.759Z,13.23
2023-04-29T17:57:09.444Z,14.40
2023-04-29T18:02:11.108Z,19.33
2023-04-29T18:07:13.036Z,16.23
2023-04-29T18:12:14.722Z,17.75
2023-04-29T18:17:16.673Z,16.80
2023-04-29T18:22:18.329Z,14.30
2023-04-29T18:27:20.072Z,15.48
2023-04-29T18:32:21.732Z,15.73
2023-04-29T18:37:23.316Z,12.93
2023-04-29T18:42:24.924Z,14.10
2023-04-29T18:47:26.570Z,13.25
2023-04-29T19:26:05.985Z,15.15
2023-04-29T19:31:08.714Z,15.95
2023-04-29T19:36:11.535Z,16.67
2023-04-29T19:41:13.365Z,16.48
2023-04-29T19:46:15.078Z,14.32
2023-04-29T19:51:16.977Z,12.32
2023-04-29T19:56:20.028Z,11.50
2023-04-29T20:01:21.722Z,9.80
2023-04-29T20:06:23.458Z,9.35
2023-04-29T20:11:25.268Z,8.70
2023-04-29T20:16:30.929Z,9.75
2023-04-29T20:21:40.172Z,9.27
2023-04-29T20:26:44.254Z,8.55
2023-04-29T20:31:48.645Z,8.52
2023-04-29T20:36:53.492Z,8.55
2023-04-29T20:41:59.963Z,10.38
2023-04-29T20:47:04.865Z,10.30
2023-04-29T20:52:08.998Z,11.23
2023-04-29T20:57:12.534Z,10.68
2023-04-29T21:02:14.752Z,10.77
2023-04-29T21:07:16.675Z,8.23
2023-04-29T21:12:18.518Z,8.73
2023-04-29T21:17:20.114Z,6.55
2023-04-29T21:22:21.667Z,5.97
2023-04-29T21:27:23.319Z,5.75
2023-04-29T21:32:24.941Z,5.32
2023-04-29T21:37:26.655Z,6.20
2023-04-29T21:42:28.477Z,5.30
2023-04-29T21:47:30.825Z,5.63
2023-04-29T21:52:35.116Z,5.25
2023-04-29T21:57:44.556Z,5.38
2023-04-29T22:02:47.071Z,5.63
2023-04-29T22:07:48.742Z,5.20
2023-04-29T22:12:50.878Z,5.60
2023-04-29T22:17:52.655Z,5.07
2023-04-29T22:22:54.345Z,4.82
2023-04-29T22:27:56.794Z,4.97
2023-04-29T22:32:58.445Z,5.57
2023-04-29T22:38:00.122Z,6.05
2023-04-29T22:43:01.736Z,5.72
2023-04-29T22:48:03.457Z,6.13
2023-04-29T22:53:05.529Z,6.40
2023-04-29T22:58:07.204Z,6.03
2023-04-29T23:03:08.978Z,6.28
2023-04-29T23:08:10.709Z,5.45
2023-04-29T23:13:13.207Z,6.28
2023-04-29T23:18:15.011Z,6.30
2023-04-29T23:23:17.930Z,7.00
2023-04-29T23:28:19.673Z,6.72
2023-04-29T23:33:21.307Z,6.95
2023-04-29T23:38:23.089Z,6.47
2023-04-29T23:43:24.670Z,6.93
2023-04-29T23:48:26.258Z,7.75
2023-04-29T23:53:27.893Z,7.70
2023-04-29T23:58:29.515Z,7.50
